Flight Track Log - Related Links

Times and Time Zones

All times are in EDT time to prevent confusion due to time zone crossing. See the SKW5595 flight status page for this flight to view local times or setup timezone preferences in your user account.

Time Position Orientation Groundspeed Altitude Reporting Facility
EDT Latitude Longitude Course Direction KTS MPH feet Rate Location/Type
Sat 01:13:12 PM 30.1339 -97.5178 97° East 226 260 5,200  Level Fort Worth Center
Sat 01:14:09 PM 30.1467 -97.4319 80° East 272 313 7,500 2,319 Climbing Houston Center
Sat 01:15:11 PM 30.1906 -97.3569 56° Northeast 281 323 9,800 1,935 Climbing Houston Center
Sat 01:16:00 PM 30.3383 -96.9728 98° East  Level FlightAware Approximate
Sat 01:16:13 PM 30.2372 -97.2775 56° Northeast 294 338 11,500  Level Houston Center
Sat 01:17:00 PM 30.3333 -96.8374 90° East  Level FlightAware Approximate
Sat 01:17:15 PM 30.2967 -97.1750 56° Northeast 314 361 13,800  Level Houston Center
Sat 01:18:00 PM 30.3236 -96.7021 97° East  Level FlightAware Approximate
Sat 01:18:18 PM 30.3492 -97.0858 56° Northeast 331 381 15,400  Level Houston Center
Sat 01:19:20 PM 30.3467 -96.9750 91° East 343 395 17,000 1,452 Climbing Houston Center
Sat 01:20:22 PM 30.3394 -96.8622 94° East 351 404 18,400 1,258 Climbing Houston Center
Sat 01:21:24 PM 30.3331 -96.7444 94° East 361 415 19,600 1,548 Climbing Houston Center
Sat 01:22:26 PM 30.3233 -96.6022 94° East 373 429 21,600 1,548 Climbing Houston Center
Sat 01:23:28 PM 30.3433 -96.4889 78° East 372 428 22,800 1,113 Climbing Houston Center
Sat 01:24:30 PM 30.3931 -96.3808 62° Northeast 377 434 23,900 1,161 Climbing Houston Center
Sat 01:25:32 PM 30.4442 -96.2717 61° Northeast 385 443 25,200 1,104 Climbing Houston Center
Sat 01:26:35 PM 30.4975 -96.1625 60° Northeast 388 447 26,200 1,152 Climbing Houston Center
Sat 01:27:37 PM 30.5536 -96.0408 62° Northeast 388 447 27,600 1,113 Climbing Houston Center
Sat 01:28:39 PM 30.6056 -95.9294 62° Northeast 388 447 28,500 919 Climbing Houston Center
Sat 01:29:41 PM 30.6594 -95.8158 61° Northeast 395 455 29,500 774 Climbing Houston Center
Sat 01:30:43 PM 30.7156 -95.6942 62° Northeast 394 453 30,100 581 Climbing Houston Center
Sat 01:31:45 PM 30.7697 -95.5778 62° Northeast 407 468 30,700 629 Climbing Houston Center
Sat 01:32:47 PM 30.8228 -95.4608 62° Northeast 410 472 31,400 726 Climbing Houston Center
Sat 01:33:49 PM 30.8889 -95.3172 62° Northeast 416 479 32,200 871 Climbing Houston Center
Sat 01:34:51 PM 30.9436 -95.1975 62° Northeast 417 480 33,200 823 Climbing Houston Center
Sat 01:35:53 PM 30.9975 -95.0800 62° Northeast 417 480 33,900 726 Climbing Houston Center
Sat 01:36:55 PM 31.0508 -94.9622 62° Northeast 415 478 34,700 774 Climbing Houston Center
Sat 01:37:57 PM 31.1028 -94.8469 62° Northeast 412 474 35,500 677 Climbing Houston Center
Sat 01:38:59 PM 31.1586 -94.7292 61° Northeast 411 473 36,100 532 Climbing Houston Center
Sat 01:40:01 PM 31.2447 -94.6428 41° Northeast 409 471 36,600 435 Climbing Houston Center
Sat 01:41:03 PM 31.3467 -94.5486 38° Northeast 420 483 37,000 339 Climbing Houston Center
Sat 01:42:05 PM 31.4372 -94.4664 38° Northeast 413 475 37,300  Climbing Houston Center
Sat 01:43:07 PM 31.5294 -94.3808 38° Northeast 419 482 37,000 -145 Descending Houston Center
Sat 01:44:09 PM 31.6425 -94.2758 38° Northeast 428 493 37,000  Level Houston Center
Sat 01:45:18 PM 31.7397 -94.1878 38° Northeast 436 502 37,000  Level Fort Worth Center
Sat 01:46:21 PM 31.8553 -94.0792 39° Northeast 443 510 37,000 48 Level Fort Worth Center
Sat 01:47:23 PM 31.9525 -93.9889 38° Northeast 444 511 37,100 290 Climbing Fort Worth Center
Sat 01:48:25 PM 32.0489 -93.8978 39° Northeast 443 510 37,600 484 Climbing Fort Worth Center
Sat 01:49:27 PM 32.1436 -93.8094 38° Northeast 439 505 38,100 532 Climbing Fort Worth Center
Sat 01:50:29 PM 32.2422 -93.7144 39° Northeast 421 484 38,700 435 Climbing Fort Worth Center
Sat 01:51:31 PM 32.3322 -93.6289 39° Northeast 413 475 39,000 144 Climbing Fort Worth Center
Sat 01:52:34 PM 32.4217 -93.5411 40° Northeast 417 480 39,000  Level Fort Worth Center
Sat 01:53:36 PM 32.5131 -93.4575 38° Northeast 418 481 39,000  Level Fort Worth Center
Sat 01:54:38 PM 32.6028 -93.3733 38° Northeast 416 479 39,000  Level Fort Worth Center
Sat 01:55:40 PM 32.7083 -93.2706 39° Northeast 414 476 39,000  Level Fort Worth Center
Sat 01:56:42 PM 32.7961 -93.1867 39° Northeast 410 472 39,000  Level Fort Worth Center
Sat 01:57:44 PM 32.8833 -93.1017 39° Northeast 409 471 39,000  Level Fort Worth Center
Sat 01:58:46 PM 32.9739 -93.0164 38° Northeast 413 475 39,000  Level Fort Worth Center
Sat 01:59:49 PM 33.0811 -92.9136 39° Northeast 415 478 39,000  Level Fort Worth Center
Sat 02:00:51 PM 33.1689 -92.8278 39° Northeast 414 476 39,000  Level Fort Worth Center
Sat 02:01:53 PM 33.2531 -92.7350 43° Northeast 411 473 39,000  Level Fort Worth Center
Sat 02:02:55 PM 33.3019 -92.6172 64° Northeast 399 459 39,000  Level Fort Worth Center
Sat 02:03:57 PM 33.3481 -92.4947 66° East 406 467 39,000  Level Fort Worth Center
Sat 02:04:59 PM 33.3925 -92.3728 66° East 404 465 39,000  Level Fort Worth Center
Sat 02:06:01 PM 33.4469 -92.2253 66° East 404 465 39,000  Level Fort Worth Center
Sat 02:07:04 PM 33.4919 -92.1011 66° East 405 466 39,000  Level Fort Worth Center
Sat 02:08:13 PM 33.5442 -91.9544 67° East 404 465 39,000  Level Memphis Center
Sat 02:09:15 PM 33.5906 -91.8306 66° East 404 465 39,000  Level Memphis Center
Sat 02:10:17 PM 33.6353 -91.7100 66° East 405 466 39,000  Level Memphis Center
Sat 02:11:19 PM 33.6772 -91.5886 67° East 404 465 39,000  Level Memphis Center
Sat 02:12:21 PM 33.7208 -91.4650 67° East 404 465 39,000  Level Memphis Center
Sat 02:13:23 PM 33.7719 -91.3175 67° East 404 465 39,000  Level Memphis Center
Sat 02:14:24 PM 33.8169 -91.1961 66° East 403 464 39,000  Level Memphis Center
Sat 02:15:26 PM 33.8594 -91.0844 65° Northeast 402 463 39,000  Level Memphis Center
Sat 02:16:28 PM 33.9347 -90.9522 56° Northeast 399 459 39,000  Level Memphis Center
Sat 02:17:30 PM 33.9956 -90.8414 56° Northeast 399 459 39,000  Level Memphis Center
Sat 02:18:32 PM 34.0558 -90.7314 56° Northeast 399 459 39,000  Level Memphis Center
Sat 02:19:34 PM 34.1158 -90.6217 57° Northeast 396 456 39,000  Level Memphis Center
Sat 02:20:36 PM 34.1758 -90.5106 57° Northeast 396 456 39,000  Level Memphis Center
Sat 02:21:38 PM 34.2356 -90.4011 57° Northeast 395 455 39,000  Level Memphis Center
Sat 02:22:39 PM 34.3056 -90.2700 57° Northeast 391 450 39,000  Level Memphis Center
Sat 02:23:41 PM 34.3656 -90.1608 56° Northeast 391 450 39,000  Level Memphis Center
Sat 02:24:43 PM 34.4239 -90.0497 58° Northeast 391 450 39,000  Level Memphis Center
Sat 02:25:45 PM 34.4831 -89.9372 57° Northeast 393 452 39,000  Level Memphis Center
Sat 02:26:47 PM 34.5414 -89.8247 58° Northeast 396 456 39,000  Level Memphis Center
Sat 02:27:49 PM 34.6014 -89.7119 57° Northeast 398 458 39,000  Level Memphis Center
Sat 02:28:51 PM 34.6714 -89.5750 58° Northeast 400 460 39,000  Level Memphis Center
Sat 02:29:53 PM 34.7322 -89.4611 57° Northeast 403 464 39,000  Level Memphis Center
Sat 02:30:55 PM 34.7928 -89.3475 57° Northeast 404 465 39,000  Level Memphis Center
Sat 02:31:56 PM 34.8531 -89.2336 57° Northeast 404 465 39,000  Level Memphis Center
Sat 02:32:58 PM 34.9133 -89.1192 57° Northeast 404 465 39,000  Level Memphis Center
Sat 02:34:00 PM 34.9850 -88.9825 57° Northeast 403 464 39,000  Level Memphis Center
Sat 02:35:02 PM 35.0442 -88.8675 58° Northeast 403 464 39,000  Level Memphis Center
Sat 02:36:04 PM 35.1033 -88.7528 58° Northeast 402 463 39,000  Level Memphis Center
Sat 02:37:06 PM 35.1617 -88.6375 58° Northeast 402 463 39,000  Level Memphis Center
Sat 02:38:08 PM 35.2211 -88.5217 58° Northeast 402 463 39,000  Level Memphis Center
Sat 02:39:10 PM 35.2897 -88.3892 58° Northeast 402 463 39,000  Level Memphis Center
Sat 02:40:11 PM 35.3497 -88.2711 58° Northeast 404 465 39,000  Level Memphis Center
Sat 02:41:13 PM 35.4147 -88.1417 58° Northeast 406 467 39,000  Level Memphis Center
Sat 02:42:15 PM 35.4758 -88.0225 58° Northeast 408 470 39,000  Level Memphis Center
Sat 02:43:17 PM 35.5372 -87.9028 58° Northeast 410 472 39,000  Level Memphis Center
Sat 02:44:19 PM 35.5983 -87.7825 58° Northeast 410 472 39,000  Level Memphis Center
Sat 02:45:21 PM 35.6586 -87.6597 59° Northeast 410 472 39,000  Level Memphis Center
Sat 02:46:22 PM 35.7197 -87.5372 58° Northeast 414 476 39,000  Level Memphis Center
Sat 02:47:24 PM 35.7803 -87.4153 59° Northeast 414 476 39,000  Level Memphis Center
Sat 02:48:26 PM 35.8400 -87.2928 59° Northeast 414 476 39,000  Level Memphis Center
Sat 02:49:28 PM 35.9100 -87.1497 59° Northeast 414 476 39,000  Level Memphis Center
Sat 02:50:30 PM 35.9706 -87.0258 59° Northeast 415 478 39,000  Level Memphis Center
Sat 02:51:31 PM 36.0300 -86.9022 59° Northeast 416 479 39,000  Level Memphis Center
Sat 02:52:33 PM 36.0878 -86.7792 60° Northeast 416 479 39,000  Level Memphis Center
Sat 02:53:35 PM 36.1483 -86.6550 59° Northeast 417 480 39,000  Level Memphis Center
Sat 02:54:37 PM 36.2086 -86.5300 59° Northeast 420 483 39,000  Level Memphis Center
Sat 02:55:39 PM 36.2797 -86.3850 59° Northeast 421 484 39,000  Level Memphis Center
Sat 02:56:40 PM 36.3408 -86.2583 59° Northeast 423 487 39,000  Level Memphis Center
Sat 02:57:42 PM 36.4017 -86.1314 59° Northeast 423 487 39,000  Level Memphis Center
Sat 02:58:44 PM 36.4631 -86.0047 59° Northeast 424 488 39,000  Level Memphis Center
Sat 02:59:46 PM 36.5236 -85.8761 60° Northeast 425 489 39,000  Level Memphis Center
Sat 03:00:16 PM 36.5511 -85.8214 58° Northeast 425 489 39,000  Level Indianapolis Center
Sat 03:00:48 PM 36.5869 -85.7464 59° Northeast 425 489 39,000  Level Memphis Center
Sat 03:01:49 PM 36.6469 -85.6183 60° Northeast 426 490 39,000  Level Memphis Center
Sat 03:02:19 PM 36.6839 -85.5381 60° Northeast 427 491 39,000  Level Indianapolis Center
Sat 03:03:21 PM 36.7442 -85.4089 60° Northeast 427 491 39,000  Level Indianapolis Center
Sat 03:04:22 PM 36.8047 -85.2786 60° Northeast 428 493 39,000  Level Indianapolis Center
Sat 03:05:24 PM 36.8650 -85.1481 60° Northeast 432 497 39,000  Level Indianapolis Center
Sat 03:06:25 PM 36.9253 -85.0194 60° Northeast 430 495 39,000  Level Indianapolis Center
Sat 03:07:27 PM 36.9853 -84.8869 60° Northeast 432 497 39,000  Level Indianapolis Center
Sat 03:08:28 PM 37.0492 -84.7486 60° Northeast 432 497 39,000  Level Indianapolis Center
Sat 03:09:30 PM 37.1092 -84.6169 60° Northeast 433 498 39,000  Level Indianapolis Center
Sat 03:10:31 PM 37.1697 -84.4850 60° Northeast 433 498 39,000  Level Indianapolis Center
Sat 03:11:33 PM 37.2292 -84.3522 61° Northeast 434 499 39,000  Level Indianapolis Center
Sat 03:12:35 PM 37.2889 -84.2186 61° Northeast 434 499 39,000  Level Indianapolis Center
Sat 03:13:36 PM 37.3603 -84.0611 60° Northeast 439 505 39,000  Level Indianapolis Center
Sat 03:14:38 PM 37.4203 -83.9256 61° Northeast 440 506 39,000  Level Indianapolis Center
Sat 03:15:39 PM 37.4811 -83.7908 60° Northeast 440 506 39,000  Level Indianapolis Center
Sat 03:16:41 PM 37.5414 -83.6539 61° Northeast 441 507 39,000  Level Indianapolis Center
Sat 03:17:42 PM 37.6019 -83.5183 61° Northeast 442 509 39,000  Level Indianapolis Center
Sat 03:18:44 PM 37.6614 -83.3806 61° Northeast 442 509 39,000  Level Indianapolis Center
Sat 03:19:46 PM 37.7219 -83.2444 61° Northeast 442 509 39,000  Level Indianapolis Center
Sat 03:20:47 PM 37.7817 -83.1058 61° Northeast 442 509 39,000  Level Indianapolis Center
Sat 03:21:49 PM 37.8408 -82.9697 61° Northeast 443 510 39,000  Level Indianapolis Center
Sat 03:22:50 PM 37.9089 -82.8089 62° Northeast 443 510 39,000  Level Indianapolis Center
Sat 03:23:52 PM 37.9644 -82.6708 63° Northeast 442 509 39,000  Level Indianapolis Center
Sat 03:24:53 PM 37.9933 -82.5169 77° East 445 512 39,000  Level Indianapolis Center
Sat 03:25:55 PM 38.0233 -82.3617 76° East 445 512 39,000 -97 Level Indianapolis Center
Sat 03:26:57 PM 38.0514 -82.2097 77° East 446 513 38,800 -585 Descending Indianapolis Center
Sat 03:27:58 PM 38.0828 -82.0472 76° East 450 518 37,800 -878 Descending Indianapolis Center
Sat 03:29:00 PM 38.1131 -81.8883 76° East 458 527 37,000 -585 Descending Indianapolis Center
Sat 03:30:01 PM 38.1406 -81.7306 77° East 459 528 36,600 -683 Descending Indianapolis Center
Sat 03:31:03 PM 38.1703 -81.5744 76° East 459 528 35,600 -968 Descending Indianapolis Center
Sat 03:32:05 PM 38.1972 -81.4225 77° East 452 520 34,600 -1,073 Descending Indianapolis Center
Sat 03:33:06 PM 38.2300 -81.2414 77° East 446 513 33,400 -780 Descending Indianapolis Center
Sat 03:34:08 PM 38.2575 -81.0900 77° East 445 512 33,000 -194 Descending Indianapolis Center
Sat 03:35:10 PM 38.2814 -80.9342 79° East 447 514 33,000  Level Indianapolis Center
Sat 03:36:11 PM 38.3072 -80.7778 78° East 451 519 33,000  Level Indianapolis Center
Sat 03:37:13 PM 38.3314 -80.6197 79° East 452 520 33,000 -356 Level Indianapolis Center
Sat 03:38:09 PM 38.3531 -80.4822 79° East 447 514 32,300 -1,158 Descending Washington Center
Sat 03:39:07 PM 38.3803 -80.3250 77° East 447 514 30,800 -1,513 Descending Washington Center
Sat 03:40:08 PM 38.4028 -80.1700 79° East 447 514 29,300 -1,230 Descending Washington Center
Sat 03:41:09 PM 38.4250 -80.0256 79° East 434 499 28,300 -1,008 Descending Washington Center
Sat 03:42:07 PM 38.4472 -79.8758 79° East 429 494 27,300 -1,008 Descending Washington Center
Sat 03:43:08 PM 38.4669 -79.7311 80° East 422 486 26,300 -1,240 Descending Washington Center
Sat 03:44:08 PM 38.4906 -79.5839 78° East 422 486 24,800 -1,190 Descending Washington Center
Sat 03:45:09 PM 38.5142 -79.4392 78° East 427 491 23,900 -1,412 Descending Washington Center
Sat 03:46:07 PM 38.5414 -79.3000 76° East 416 479 22,000 -1,966 Descending Washington Center
Sat 03:47:08 PM 38.5664 -79.1631 77° East 401 461 20,000 -1,967 Descending Washington Center
Sat 03:48:09 PM 38.5933 -79.0264 76° East 395 455 18,000 -1,563 Descending Washington Center
Sat 03:49:07 PM 38.6136 -78.8969 79° East 385 443 16,900 -1,160 Descending Washington Center
Sat 03:50:08 PM 38.6381 -78.7678 76° East 380 437 15,700 -1,339 Descending Washington Center
Sat 03:51:08 PM 38.6661 -78.6442 74° East 370 426 14,200 -1,091 Descending Washington Center
Sat 03:52:09 PM 38.6964 -78.5178 73° East 360 414 13,500 -1,412 Descending Washington Center
Sat 03:53:07 PM 38.7406 -78.4156 61° Northeast 343 395 11,400 -1,714 Descending Washington Center
Sat 03:54:08 PM 38.7883 -78.3294 55° Northeast 313 360 10,100 -1,131 Descending Washington Center
Sat 03:55:09 PM 38.8364 -78.2406 55° Northeast 300 345 9,100 -1,160 Descending Washington Center
Sat 03:56:07 PM 38.8697 -78.1458 66° East 295 339 7,800 -1,109 Descending Washington Center
Sat 03:57:08 PM 38.8947 -78.0428 73° East 289 333 6,900 -893 Descending Washington Center
Sat 03:58:08 PM 38.9194 -77.9475 72° East 289 333 6,000 -446 Descending Washington Center
Sat 03:59:09 PM 38.9444 -77.8469 72° East 284 327 6,000  Level Washington Center
Sat 04:00:07 PM 38.9608 -77.7406 79° East 279 321 6,000  Level Washington Center
Sat 04:01:08 PM 38.9542 -77.6578 96° East 268 308 6,000  Level Washington Center
Sat 04:02:35 PM 39.0167 -77.5833 43° Northeast 230 265 6,000 -353 Level Potomac TRACON
Sat 04:03:41 PM 39.0833 -77.5833 360° North 201 231 5,100 -952 Descending Potomac TRACON
Sat 04:04:41 PM 39.1333 -77.5667 14° North 196 226 4,000 -545 Descending Potomac TRACON
Sat 04:05:42 PM 39.1667 -77.5167 49° Northeast 192 221 4,000 -298 Level Potomac TRACON
Sat 04:06:42 PM 39.1333 -77.4667 131° Southeast 175 201 3,400 -737 Descending Potomac TRACON
Sat 04:07:36 PM 39.1000 -77.4500 159° South 168 193 2,600 -850 Descending Potomac TRACON
Sat 04:08:42 PM 39.0500 -77.4667 195° South 168 193 1,700 -810 Descending Potomac TRACON
Sat 04:09:42 PM 39.0000 -77.4667 180° South 127 146 900 -800 Descending Potomac TRACON
Sat 04:11:00 PM 38.9474 -77.4599 159° South  Level Estimated

Login

Don't have an account? Register now (free) for customized features, flight alerts, and more!